createdAt,value
2023-02-18T00:00:50.659Z,53.46
2023-02-18T00:01:55.412Z,53.11
2023-02-18T00:02:57.871Z,53.59
2023-02-18T00:04:02.310Z,53.30
2023-02-18T00:05:05.622Z,52.95
2023-02-18T00:06:15.353Z,53.29
2023-02-18T00:07:19.170Z,53.72
2023-02-18T00:08:22.390Z,53.96
2023-02-18T00:09:25.995Z,54.14
2023-02-18T00:10:28.814Z,54.17
2023-02-18T00:11:35.456Z,53.97
2023-02-18T00:12:38.322Z,54.03
2023-02-18T00:13:42.150Z,53.81
2023-02-18T00:14:44.556Z,54.48
2023-02-18T00:15:48.328Z,54.24
2023-02-18T00:16:51.018Z,54.48
2023-02-18T00:17:54.638Z,54.37
2023-02-18T00:18:59.965Z,54.56
2023-02-18T00:20:04.540Z,55.08
2023-02-18T00:21:08.632Z,55.01
2023-02-18T00:22:13.800Z,54.65
2023-02-18T00:23:16.214Z,54.63
2023-02-18T00:24:19.865Z,54.63
2023-02-18T00:25:22.828Z,55.92
2023-02-18T00:26:27.089Z,56.19
2023-02-18T00:27:29.784Z,56.29
2023-02-18T00:28:33.849Z,56.41
2023-02-18T00:29:38.050Z,55.75
2023-02-18T00:30:41.523Z,56.27
2023-02-18T00:31:46.127Z,56.69
2023-02-18T00:32:48.660Z,56.14
2023-02-18T00:33:52.233Z,56.12
2023-02-18T00:34:54.952Z,56.54
2023-02-18T00:36:04.072Z,55.79
2023-02-18T00:37:06.731Z,56.68
2023-02-18T00:38:11.968Z,55.97
2023-02-18T00:39:15.660Z,55.90
2023-02-18T00:40:18.250Z,56.09
2023-02-18T00:41:22.270Z,55.88
2023-02-18T00:42:25.201Z,54.15
2023-02-18T00:43:29.237Z,54.39
2023-02-18T00:44:31.982Z,52.86
2023-02-18T00:45:35.415Z,52.74
2023-02-18T00:46:38.494Z,52.73
2023-02-18T00:47:41.982Z,52.83
2023-02-18T00:48:45.119Z,52.53
2023-02-18T00:49:48.828Z,53.64
2023-02-18T00:50:51.747Z,53.05
2023-02-18T00:51:55.427Z,53.66
2023-02-18T00:52:58.707Z,53.38
2023-02-18T00:54:04.442Z,53.40
2023-02-18T00:55:07.356Z,54.13
2023-02-18T00:56:11.210Z,53.62
2023-02-18T00:57:14.830Z,53.84
2023-02-18T00:58:17.300Z,54.20
2023-02-18T00:59:20.831Z,53.20
2023-02-18T01:00:25.556Z,52.86
2023-02-18T01:01:29.862Z,51.78
2023-02-18T01:02:32.868Z,51.19
2023-02-18T01:03:37.397Z,51.12
2023-02-18T01:04:41.215Z,51.02
2023-02-18T01:05:44.871Z,51.55
2023-02-18T01:06:48.571Z,50.87
2023-02-18T01:07:51.149Z,51.78
2023-02-18T01:08:54.762Z,51.25
2023-02-18T01:09:59.920Z,50.69
2023-02-18T01:11:04.272Z,51.87
2023-02-18T01:12:08.298Z,51.49
2023-02-18T01:13:12.132Z,51.48
2023-02-18T01:14:15.582Z,52.34
2023-02-18T01:15:19.140Z,51.46
2023-02-18T01:16:23.535Z,52.37
2023-02-18T01:17:26.061Z,51.96
2023-02-18T01:18:29.638Z,52.80
2023-02-18T01:19:32.094Z,52.89
2023-02-18T01:20:35.815Z,53.32
2023-02-18T01:21:38.286Z,53.35
2023-02-18T01:22:41.937Z,53.01
2023-02-18T01:23:44.997Z,53.42
2023-02-18T01:24:48.563Z,54.05
2023-02-18T01:25:53.407Z,52.81
2023-02-18T01:26:57.064Z,52.73
2023-02-18T01:27:59.630Z,53.00
2023-02-18T01:29:03.332Z,52.87
2023-02-18T01:30:09.366Z,53.58
2023-02-18T01:31:14.853Z,53.39
2023-02-18T01:32:18.146Z,52.66
2023-02-18T01:33:21.988Z,52.86
2023-02-18T01:34:24.450Z,52.15
2023-02-18T01:35:28.938Z,52.13
2023-02-18T01:36:31.702Z,52.11
2023-02-18T01:37:35.521Z,51.83
2023-02-18T01:38:38.634Z,52.08
2023-02-18T01:39:42.328Z,52.19
2023-02-18T01:40:48.228Z,51.93
2023-02-18T01:41:53.258Z,52.16
2023-02-18T01:42:56.580Z,51.59
2023-02-18T01:44:14.632Z,51.90
2023-02-18T01:45:48.471Z,50.80
2023-02-18T01:46:53.036Z,51.07
2023-02-18T01:47:56.717Z,51.95
2023-02-18T01:49:03.213Z,50.87
2023-02-18T01:50:06.956Z,50.59
2023-02-18T01:51:15.082Z,51.07
2023-02-18T01:52:19.531Z,50.43
2023-02-18T01:53:27.514Z,51.33
2023-02-18T01:54:34.390Z,50.64
2023-02-18T01:55:39.428Z,50.13
2023-02-18T01:56:49.644Z,49.87
2023-02-18T01:57:54.407Z,49.92
2023-02-18T01:59:01.651Z,49.93
2023-02-18T02:00:07.753Z,50.50
2023-02-18T02:01:12.526Z,50.30
2023-02-18T02:02:18.525Z,50.34
2023-02-18T02:03:21.998Z,50.33
2023-02-18T02:04:25.056Z,50.68
2023-02-18T02:05:33.339Z,50.69
2023-02-18T02:06:36.186Z,51.12
2023-02-18T02:07:42.505Z,51.76
2023-02-18T02:08:46.759Z,51.50
2023-02-18T02:09:54.320Z,52.04
2023-02-18T02:11:18.303Z,51.75
2023-02-18T02:12:45.440Z,52.50
2023-02-18T02:14:11.974Z,52.34
2023-02-18T02:15:33.721Z,52.50
2023-02-18T02:16:45.268Z,52.78
2023-02-18T02:18:02.688Z,52.78
2023-02-18T02:19:28.591Z,53.70
2023-02-18T02:21:02.084Z,54.74
2023-02-18T02:22:42.241Z,54.54
2023-02-18T02:24:18.208Z,53.48
2023-02-18T02:25:42.066Z,53.77
2023-02-18T02:27:06.788Z,53.49
2023-02-18T02:28:35.729Z,52.85
2023-02-18T02:30:12.804Z,52.88
2023-02-18T02:31:55.020Z,53.76
2023-02-18T02:33:34.140Z,54.21
2023-02-18T02:34:53.144Z,53.16
2023-02-18T02:36:01.129Z,53.75
2023-02-18T02:37:10.730Z,53.23
2023-02-18T02:38:21.915Z,53.42
2023-02-18T02:39:31.483Z,53.66
2023-02-18T02:40:40.209Z,53.45
2023-02-18T02:41:52.755Z,53.79
2023-02-18T02:43:07.908Z,54.08
2023-02-18T02:44:20.383Z,53.93
2023-02-18T02:45:37.796Z,54.64
2023-02-18T02:46:44.929Z,53.98
2023-02-18T02:47:56.905Z,53.74
2023-02-18T02:49:08.584Z,54.56
2023-02-18T02:50:21.546Z,54.63
2023-02-18T02:51:28.970Z,54.51
2023-02-18T02:52:34.553Z,54.91
2023-02-18T02:53:40.752Z,54.44
2023-02-18T02:54:44.991Z,54.32
2023-02-18T02:55:48.042Z,54.02
2023-02-18T02:56:52.249Z,54.18
2023-02-18T02:57:56.529Z,54.69
2023-02-18T02:59:04.021Z,54.62
2023-02-18T03:00:10.532Z,55.06
2023-02-18T03:01:25.874Z,54.13
2023-02-18T03:02:37.994Z,54.30
2023-02-18T03:03:58.440Z,54.55
2023-02-18T03:05:12.592Z,54.53
2023-02-18T03:06:32.332Z,54.33
2023-02-18T03:08:10.216Z,54.73
2023-02-18T03:09:18.870Z,54.69
2023-02-18T03:10:37.214Z,54.18
2023-02-18T03:11:48.664Z,55.00
2023-02-18T03:13:06.034Z,55.26
2023-02-18T03:14:18.342Z,54.82
2023-02-18T03:15:25.826Z,54.46
2023-02-18T03:16:37.311Z,54.52
2023-02-18T03:17:47.802Z,54.47
2023-02-18T03:18:57.806Z,54.54
2023-02-18T03:20:07.360Z,54.63
2023-02-18T03:21:15.413Z,54.60
2023-02-18T03:22:24.783Z,54.47
2023-02-18T03:23:32.823Z,54.32
2023-02-18T03:24:39.965Z,54.82
2023-02-18T03:25:43.907Z,55.27
2023-02-18T03:26:51.961Z,55.48
2023-02-18T03:27:58.390Z,55.51
2023-02-18T03:29:07.620Z,55.34
2023-02-18T03:30:17.657Z,55.15
2023-02-18T03:31:23.151Z,55.22
2023-02-18T03:32:29.241Z,55.64
2023-02-18T03:33:36.358Z,55.06
2023-02-18T03:34:44.733Z,54.61
2023-02-18T03:35:48.727Z,54.29
2023-02-18T03:36:52.735Z,54.37
2023-02-18T03:38:03.008Z,54.40
2023-02-18T03:39:12.245Z,54.57
2023-02-18T03:40:17.706Z,54.07
2023-02-18T03:41:21.794Z,53.91
2023-02-18T03:42:27.112Z,54.47
2023-02-18T03:43:31.313Z,53.82
2023-02-18T03:44:33.842Z,54.06
2023-02-18T03:45:37.485Z,53.63
2023-02-18T03:46:43.781Z,53.82
2023-02-18T03:47:48.143Z,53.23
2023-02-18T03:48:51.909Z,53.68
2023-02-18T03:49:54.585Z,53.99
2023-02-18T03:50:58.317Z,54.07
2023-02-18T03:52:01.027Z,54.31
2023-02-18T03:53:06.724Z,54.66
2023-02-18T03:54:10.319Z,55.55
2023-02-18T03:55:14.186Z,54.97
2023-02-18T03:56:17.850Z,55.45
2023-02-18T03:57:21.524Z,55.16
2023-02-18T03:58:24.340Z,55.71
2023-02-18T03:59:28.070Z,55.24
2023-02-18T04:00:30.521Z,55.05
2023-02-18T04:01:36.024Z,54.99
2023-02-18T04:02:38.884Z,55.35
2023-02-18T04:03:43.077Z,55.18
2023-02-18T04:04:45.615Z,55.28
2023-02-18T04:05:49.624Z,54.78
2023-02-18T04:06:54.441Z,55.16
2023-02-18T04:07:57.329Z,55.53
2023-02-18T04:09:02.767Z,56.09
2023-02-18T04:10:06.577Z,56.44
2023-02-18T04:11:10.580Z,56.16
2023-02-18T04:12:13.451Z,56.15
2023-02-18T04:13:19.832Z,56.23
2023-02-18T04:14:22.381Z,55.94
2023-02-18T04:15:26.126Z,56.45
2023-02-18T04:16:29.308Z,55.86
2023-02-18T04:17:34.936Z,56.00
2023-02-18T04:18:37.807Z,55.67
2023-02-18T04:19:41.617Z,55.43
2023-02-18T04:20:44.494Z,55.49
2023-02-18T04:21:48.902Z,55.32
2023-02-18T04:22:52.065Z,54.75
2023-02-18T04:23:56.005Z,54.86
2023-02-18T04:25:00.736Z,54.97
2023-02-18T04:26:04.633Z,55.01
2023-02-18T04:27:07.189Z,55.20
2023-02-18T04:28:13.445Z,54.54
2023-02-18T04:29:16.282Z,54.85
2023-02-18T04:30:20.427Z,54.45
2023-02-18T04:31:23.316Z,55.07
2023-02-18T04:32:27.140Z,55.38
2023-02-18T04:33:29.893Z,55.65
2023-02-18T04:34:33.522Z,56.33
2023-02-18T04:35:36.973Z,57.11
2023-02-18T04:36:40.928Z,56.62
2023-02-18T04:37:44.511Z,56.27
2023-02-18T04:38:47.013Z,56.46
2023-02-18T04:39:50.649Z,56.01
2023-02-18T04:40:55.293Z,55.83
2023-02-18T04:41:58.696Z,55.40
2023-02-18T04:43:01.997Z,55.18
2023-02-18T04:44:05.795Z,55.37
2023-02-18T04:45:09.478Z,55.35
2023-02-18T04:46:13.182Z,55.36
2023-02-18T04:47:15.847Z,55.00
2023-02-18T04:48:19.928Z,55.29
2023-02-18T04:49:22.705Z,55.02
2023-02-18T04:50:26.257Z,54.32
2023-02-18T04:51:29.445Z,54.67
2023-02-18T04:52:33.167Z,54.23
2023-02-18T04:53:35.703Z,53.81
2023-02-18T04:54:39.429Z,54.32
2023-02-18T04:55:42.391Z,54.58
2023-02-18T04:56:47.578Z,54.56
2023-02-18T04:57:50.240Z,54.67
2023-02-18T04:58:54.166Z,53.97
2023-02-18T04:59:59.888Z,54.88
2023-02-18T05:01:04.425Z,54.32
2023-02-18T05:02:07.383Z,54.57
2023-02-18T05:03:11.354Z,54.45
2023-02-18T05:04:14.194Z,53.73
2023-02-18T05:05:18.784Z,53.64
2023-02-18T05:06:23.228Z,55.02
2023-02-18T05:07:26.334Z,54.54
2023-02-18T05:08:30.587Z,54.33
2023-02-18T05:09:33.682Z,54.48
2023-02-18T05:10:39.677Z,54.05
2023-02-18T05:11:47.844Z,54.57
2023-02-18T05:12:52.379Z,55.08
2023-02-18T05:13:55.681Z,54.82
2023-02-18T05:14:59.738Z,55.05
2023-02-18T05:16:02.500Z,55.47
2023-02-18T05:17:06.714Z,55.34
2023-02-18T05:18:14.041Z,55.89
2023-02-18T05:19:18.416Z,56.85
2023-02-18T05:20:21.465Z,56.77
2023-02-18T05:21:25.873Z,56.66
2023-02-18T05:22:28.372Z,56.18
2023-02-18T05:23:32.009Z,55.61
2023-02-18T05:24:34.784Z,55.56
2023-02-18T05:25:38.372Z,55.26
2023-02-18T05:26:41.768Z,55.47
2023-02-18T05:27:46.899Z,55.35
2023-02-18T05:28:49.916Z,55.84
2023-02-18T05:29:53.771Z,55.84
2023-02-18T05:30:56.377Z,56.86
2023-02-18T05:32:00.247Z,56.79
2023-02-18T05:33:03.009Z,57.27
2023-02-18T05:34:07.483Z,57.95
2023-02-18T05:35:10.675Z,57.50
2023-02-18T05:36:14.500Z,57.73
2023-02-18T05:37:18.770Z,57.80
2023-02-18T05:38:22.616Z,57.93
2023-02-18T05:39:25.800Z,57.50
2023-02-18T05:40:29.572Z,57.10
2023-02-18T05:41:32.186Z,56.69
2023-02-18T05:42:36.765Z,55.98
2023-02-18T05:43:56.374Z,56.46
2023-02-18T05:45:00.297Z,55.56
2023-02-18T05:46:03.089Z,55.40
2023-02-18T05:47:11.433Z,54.88
2023-02-18T05:48:14.508Z,55.24
2023-02-18T05:49:18.431Z,53.74
2023-02-18T05:50:21.414Z,53.74
2023-02-18T05:51:25.292Z,54.60
2023-02-18T05:52:28.143Z,54.29
2023-02-18T05:53:32.555Z,53.63
2023-02-18T05:54:36.363Z,53.71
2023-02-18T05:55:40.198Z,53.92
2023-02-18T05:56:43.605Z,55.08
2023-02-18T05:57:47.437Z,55.45
2023-02-18T05:58:51.705Z,54.50
2023-02-18T05:59:55.107Z,55.28
2023-02-18T06:00:58.085Z,54.98
2023-02-18T06:02:01.992Z,54.72
2023-02-18T06:03:04.554Z,55.76
2023-02-18T06:04:08.093Z,54.75
2023-02-18T06:05:10.696Z,54.32
2023-02-18T06:06:14.607Z,53.73
2023-02-18T06:07:17.361Z,53.67
2023-02-18T06:08:21.496Z,53.55
2023-02-18T06:09:24.278Z,53.58
2023-02-18T06:10:27.828Z,53.05
2023-02-18T06:11:30.594Z,53.97
2023-02-18T06:12:34.395Z,53.49
2023-02-18T06:13:36.884Z,53.38
2023-02-18T06:14:43.117Z,52.71
2023-02-18T06:15:45.788Z,52.91
2023-02-18T06:16:49.703Z,52.58
2023-02-18T06:17:52.134Z,52.81
2023-02-18T06:18:55.621Z,53.48
2023-02-18T06:19:57.996Z,52.65
2023-02-18T06:21:01.498Z,52.99
2023-02-18T06:22:05.617Z,52.12
2023-02-18T06:23:10.762Z,53.65
2023-02-18T06:24:15.664Z,53.86
2023-02-18T06:25:18.237Z,53.50
2023-02-18T06:26:22.263Z,53.39
2023-02-18T06:27:25.282Z,53.54
2023-02-18T06:28:29.016Z,53.63
2023-02-18T06:29:31.659Z,53.25
2023-02-18T06:30:36.875Z,53.29
2023-02-18T06:31:39.714Z,53.07
2023-02-18T06:32:43.287Z,53.27
2023-02-18T06:33:45.788Z,52.72
2023-02-18T06:34:49.284Z,52.35
2023-02-18T06:35:56.561Z,52.17
2023-02-18T06:37:01.376Z,52.96
2023-02-18T06:38:04.555Z,52.92
2023-02-18T06:39:08.417Z,52.82
2023-02-18T06:40:11.471Z,53.44
2023-02-18T06:41:16.106Z,54.41
2023-02-18T06:42:18.609Z,54.14
2023-02-18T06:43:22.558Z,54.24
2023-02-18T06:44:25.094Z,53.86
2023-02-18T06:45:28.490Z,55.21
2023-02-18T06:46:32.642Z,54.01
2023-02-18T06:47:37.154Z,54.28
2023-02-18T06:48:39.843Z,54.97
2023-02-18T06:49:43.758Z,55.36
2023-02-18T06:50:46.391Z,55.10
2023-02-18T06:51:50.353Z,54.60
2023-02-18T06:52:52.766Z,55.76
2023-02-18T06:53:56.465Z,56.69
2023-02-18T06:54:59.136Z,56.61
2023-02-18T06:56:02.730Z,56.64
2023-02-18T06:57:05.334Z,56.90
2023-02-18T06:58:08.807Z,57.82
2023-02-18T06:59:11.984Z,56.94
2023-02-18T07:00:16.207Z,56.46
2023-02-18T07:01:19.722Z,56.91
2023-02-18T07:02:23.740Z,56.81
2023-02-18T07:03:27.685Z,55.83
2023-02-18T07:04:30.342Z,55.56
2023-02-18T07:05:34.031Z,55.25
2023-02-18T07:06:37.558Z,55.64
2023-02-18T07:07:40.140Z,55.52
2023-02-18T07:08:43.854Z,54.44
2023-02-18T07:09:46.529Z,54.68
2023-02-18T07:10:50.264Z,54.54
2023-02-18T07:11:52.777Z,54.47
2023-02-18T07:12:56.613Z,54.99
2023-02-18T07:13:59.172Z,55.07
2023-02-18T07:15:02.692Z,55.05
2023-02-18T07:16:06.035Z,55.48
2023-02-18T07:17:09.690Z,55.96
2023-02-18T07:18:13.571Z,55.67
2023-02-18T07:19:17.664Z,55.98
2023-02-18T07:20:21.065Z,55.74
2023-02-18T07:21:24.601Z,56.00
2023-02-18T07:22:27.423Z,55.89
2023-02-18T07:23:30.882Z,55.85
2023-02-18T07:24:33.343Z,56.46
2023-02-18T07:25:37.148Z,56.83
2023-02-18T07:26:39.649Z,57.00
2023-02-18T07:27:43.166Z,57.46
2023-02-18T07:28:45.617Z,57.20
2023-02-18T07:29:49.495Z,56.75
2023-02-18T07:30:53.052Z,56.89
2023-02-18T07:31:55.527Z,56.64
2023-02-18T07:32:59.021Z,56.89
2023-02-18T07:34:03.189Z,57.17
2023-02-18T07:35:07.900Z,57.32
2023-02-18T07:36:11.731Z,57.13
2023-02-18T07:37:14.558Z,57.54
2023-02-18T07:38:18.355Z,57.17
2023-02-18T07:39:20.950Z,57.05
2023-02-18T07:40:24.449Z,56.92
2023-02-18T07:41:26.955Z,57.56
2023-02-18T07:42:31.355Z,57.58
2023-02-18T07:43:33.845Z,58.24
2023-02-18T07:44:38.099Z,58.51
2023-02-18T07:45:40.551Z,59.19
2023-02-18T07:46:45.600Z,58.88
2023-02-18T07:47:50.823Z,58.12
2023-02-18T07:48:53.305Z,58.28
2023-02-18T07:49:58.325Z,57.15
2023-02-18T07:51:01.267Z,57.34
2023-02-18T07:52:05.618Z,56.80
2023-02-18T07:53:09.145Z,56.67
2023-02-18T07:54:12.854Z,56.96
2023-02-18T07:55:15.559Z,56.30
2023-02-18T07:56:19.006Z,56.47
2023-02-18T07:57:21.535Z,56.16
2023-02-18T07:58:26.899Z,55.63
2023-02-18T07:59:29.346Z,55.61
2023-02-18T08:00:32.885Z,55.50
2023-02-18T08:01:36.519Z,55.62
2023-02-18T08:02:39.032Z,55.50
2023-02-18T08:03:42.791Z,56.29
2023-02-18T08:04:45.295Z,56.37
2023-02-18T08:05:52.278Z,55.78
2023-02-18T08:06:54.832Z,55.56
2023-02-18T08:07:58.394Z,54.62
2023-02-18T08:09:00.995Z,54.43
2023-02-18T08:10:04.738Z,54.06
2023-02-18T08:11:18.610Z,53.97
2023-02-18T08:12:22.951Z,54.61
2023-02-18T08:13:25.660Z,54.12
2023-02-18T08:14:29.102Z,54.29
2023-02-18T08:15:32.148Z,54.24
2023-02-18T08:16:36.391Z,53.38
2023-02-18T08:17:38.921Z,53.30
2023-02-18T08:18:42.933Z,53.61
2023-02-18T08:19:45.337Z,53.54
2023-02-18T08:20:51.934Z,53.72
2023-02-18T08:21:54.577Z,53.59
2023-02-18T08:22:58.341Z,53.39
2023-02-18T08:24:02.470Z,53.35
2023-02-18T08:25:06.621Z,53.88
2023-02-18T08:26:09.743Z,53.59
2023-02-18T08:27:14.943Z,53.65
2023-02-18T08:28:18.081Z,53.82
2023-02-18T08:29:22.112Z,53.45
2023-02-18T08:30:24.684Z,52.92
2023-02-18T08:31:29.763Z,53.20
2023-02-18T08:32:32.247Z,52.61
2023-02-18T08:33:36.291Z,52.80
2023-02-18T08:34:38.702Z,52.28
2023-02-18T08:35:43.077Z,51.32
2023-02-18T08:36:48.045Z,50.76
2023-02-18T08:37:53.097Z,50.28
2023-02-18T08:38:57.954Z,50.51
2023-02-18T08:40:02.099Z,49.83
2023-02-18T08:41:07.967Z,49.30
2023-02-18T08:42:10.567Z,48.40
2023-02-18T08:43:15.163Z,46.82
2023-02-18T08:44:17.578Z,45.70
2023-02-18T08:45:21.074Z,45.62
2023-02-18T08:46:31.567Z,44.50
2023-02-18T08:48:17.686Z,42.66
2023-02-18T08:49:02.868Z,41.34
2023-02-18T08:50:05.903Z,39.64
2023-02-18T08:51:14.720Z,39.13
2023-02-18T08:52:18.620Z,38.35
2023-02-18T08:53:22.548Z,38.16
2023-02-18T08:54:26.019Z,37.52
2023-02-18T08:55:28.412Z,37.49
2023-02-18T08:56:33.678Z,39.20
2023-02-18T08:57:36.179Z,38.06
2023-02-18T08:58:39.675Z,36.84
2023-02-18T08:59:42.314Z,36.56
2023-02-18T09:00:46.896Z,35.52
2023-02-18T09:01:50.597Z,36.16
2023-02-18T09:02:53.225Z,35.76
2023-02-18T09:03:56.684Z,36.64
2023-02-18T09:05:00.556Z,39.51
2023-02-18T09:06:03.829Z,39.60
2023-02-18T09:07:07.572Z,39.13
2023-02-18T09:08:11.475Z,37.58
2023-02-18T09:09:14.974Z,37.55
2023-02-18T09:10:17.633Z,36.81
2023-02-18T09:11:21.625Z,35.59
2023-02-18T09:12:24.101Z,35.00
2023-02-18T09:13:29.183Z,34.42
2023-02-18T09:14:31.680Z,34.50
2023-02-18T09:15:35.575Z,35.30
2023-02-18T09:16:39.247Z,35.21
2023-02-18T09:17:42.907Z,34.24
2023-02-18T09:18:48.108Z,33.37
2023-02-18T09:19:50.485Z,33.00
2023-02-18T09:20:58.741Z,33.85
2023-02-18T09:22:02.993Z,33.24
2023-02-18T09:23:06.455Z,33.63
2023-02-18T09:24:11.796Z,32.90
2023-02-18T09:25:14.317Z,33.64
2023-02-18T09:26:21.575Z,34.71
2023-02-18T09:27:24.073Z,33.96
2023-02-18T09:28:28.466Z,33.85
2023-02-18T09:29:31.205Z,34.72
2023-02-18T09:30:34.700Z,35.03
2023-02-18T09:31:39.578Z,34.59
2023-02-18T09:32:42.134Z,36.58
2023-02-18T09:33:47.903Z,36.66
2023-02-18T09:34:50.597Z,36.20
2023-02-18T09:35:54.340Z,35.64
2023-02-18T09:36:56.860Z,33.75
2023-02-18T09:38:00.420Z,34.36
2023-02-18T09:39:03.856Z,36.00
2023-02-18T09:40:15.408Z,35.67
2023-02-18T09:41:30.764Z,35.35
2023-02-18T09:42:35.274Z,34.13
2023-02-18T09:43:45.079Z,34.04
2023-02-18T09:44:52.486Z,33.95
2023-02-18T09:45:56.815Z,33.21
2023-02-18T09:47:04.052Z,32.12
2023-02-18T09:48:06.692Z,33.08
2023-02-18T09:49:17.269Z,32.98
2023-02-18T09:50:22.778Z,33.70
2023-02-18T09:51:26.780Z,31.72
2023-02-18T09:52:32.666Z,34.89
2023-02-18T09:53:36.313Z,34.03
2023-02-18T09:54:38.838Z,33.89
2023-02-18T09:55:46.473Z,35.82
2023-02-18T09:56:50.409Z,35.66
2023-02-18T09:57:56.175Z,37.31
2023-02-18T09:59:04.630Z,35.71
2023-02-18T10:00:14.475Z,36.42
2023-02-18T10:01:23.381Z,38.02
2023-02-18T10:02:26.784Z,38.35
2023-02-18T10:03:31.268Z,39.86
2023-02-18T10:04:42.801Z,39.78
2023-02-18T10:05:54.401Z,41.18
2023-02-18T10:06:58.915Z,41.21
2023-02-18T10:08:05.761Z,41.30
2023-02-18T10:09:20.788Z,40.51
2023-02-18T10:10:33.588Z,39.19
2023-02-18T10:11:41.714Z,39.36
2023-02-18T10:12:46.512Z,38.31
2023-02-18T10:13:50.154Z,37.96
2023-02-18T10:14:54.378Z,40.43
2023-02-18T10:15:58.546Z,39.70
2023-02-18T10:17:01.083Z,40.13
2023-02-18T10:18:04.879Z,39.65
2023-02-18T10:19:22.002Z,38.79
2023-02-18T10:20:27.006Z,39.06
2023-02-18T10:21:36.315Z,39.14
2023-02-18T10:22:39.808Z,40.71
2023-02-18T10:23:48.590Z,39.98
2023-02-18T10:24:55.678Z,37.93
2023-02-18T10:25:59.621Z,38.12
2023-02-18T10:27:07.420Z,37.38
2023-02-18T10:28:11.780Z,37.84
2023-02-18T10:29:20.908Z,38.16
2023-02-18T10:30:29.688Z,38.67
2023-02-18T10:31:38.027Z,38.15
2023-02-18T10:32:43.915Z,38.49
2023-02-18T10:33:54.764Z,38.74
2023-02-18T10:35:04.709Z,39.20
2023-02-18T10:36:22.364Z,40.79
2023-02-18T10:37:54.985Z,41.61
2023-02-18T10:39:20.482Z,41.54
2023-02-18T10:40:33.839Z,41.42
2023-02-18T10:41:46.366Z,42.24
2023-02-18T10:43:04.566Z,39.64
2023-02-18T10:44:16.806Z,39.88
2023-02-18T10:45:31.392Z,41.06
2023-02-18T10:46:46.254Z,41.63
2023-02-18T10:47:59.099Z,41.73
2023-02-18T10:49:20.865Z,41.63
2023-02-18T10:50:29.655Z,42.24
2023-02-18T10:51:35.843Z,43.03
2023-02-18T10:52:44.488Z,43.55
2023-02-18T10:53:49.721Z,42.94
2023-02-18T10:54:59.976Z,43.48
2023-02-18T10:56:03.845Z,45.45
2023-02-18T10:57:06.355Z,45.91
2023-02-18T10:58:28.125Z,44.48
2023-02-18T10:59:34.578Z,44.69
2023-02-18T11:00:40.486Z,44.21
2023-02-18T11:01:45.265Z,42.24
2023-02-18T11:03:08.024Z,43.09
2023-02-18T11:04:17.545Z,42.48
2023-02-18T11:05:26.123Z,44.27
2023-02-18T11:06:32.564Z,44.12
2023-02-18T11:07:39.904Z,44.55
2023-02-18T11:08:45.306Z,43.09
2023-02-18T11:09:51.496Z,42.88
2023-02-18T11:10:55.805Z,43.51
2023-02-18T11:12:08.597Z,44.34
2023-02-18T11:13:15.787Z,44.41
2023-02-18T11:14:47.665Z,44.02
2023-02-18T11:15:58.981Z,41.92
2023-02-18T11:17:11.461Z,40.70
2023-02-18T11:18:36.625Z,40.27
2023-02-18T11:19:40.753Z,40.25
2023-02-18T11:20:56.859Z,40.06
2023-02-18T11:22:08.727Z,41.81
2023-02-18T11:23:21.839Z,39.53
2023-02-18T11:24:25.560Z,41.13
2023-02-18T11:25:33.735Z,42.12
2023-02-18T11:26:37.383Z,40.47
2023-02-18T11:27:45.589Z,42.60
2023-02-18T11:28:51.765Z,45.03
2023-02-18T11:30:02.126Z,44.50
2023-02-18T11:31:05.487Z,45.62
2023-02-18T11:32:14.066Z,46.97
2023-02-18T11:33:21.144Z,46.79
2023-02-18T11:34:29.940Z,46.03
2023-02-18T11:35:35.105Z,45.20
2023-02-18T11:36:40.582Z,43.68
2023-02-18T11:37:43.793Z,42.65
2023-02-18T11:38:50.779Z,42.29
2023-02-18T11:39:56.136Z,43.23
2023-02-18T11:41:09.377Z,42.05
2023-02-18T11:42:16.605Z,40.72
2023-02-18T11:43:21.789Z,40.12
2023-02-18T11:44:30.747Z,41.29
2023-02-18T11:45:35.392Z,43.34
2023-02-18T11:46:38.974Z,40.18
2023-02-18T11:47:42.671Z,43.91
2023-02-18T11:48:45.726Z,45.24
2023-02-18T11:50:03.288Z,45.18
2023-02-18T11:51:07.395Z,47.17
2023-02-18T11:52:20.009Z,47.28
2023-02-18T11:53:32.077Z,48.03
2023-02-18T11:54:36.187Z,48.44
2023-02-18T11:55:40.492Z,47.90
2023-02-18T11:56:57.079Z,48.78
2023-02-18T11:58:02.569Z,48.98
2023-02-18T11:59:07.310Z,48.94
2023-02-18T12:00:21.834Z,47.60
2023-02-18T12:01:39.522Z,45.88
2023-02-18T12:02:43.813Z,44.62
2023-02-18T12:03:54.205Z,43.51
2023-02-18T12:05:03.054Z,43.24
2023-02-18T12:06:13.995Z,39.69
2023-02-18T12:07:23.904Z,42.57
2023-02-18T12:08:32.800Z,42.30
2023-02-18T12:09:39.911Z,44.10
2023-02-18T12:10:48.811Z,43.47
2023-02-18T12:11:55.563Z,42.12
2023-02-18T12:13:05.085Z,42.86
2023-02-18T12:14:14.690Z,42.09
2023-02-18T12:15:23.734Z,45.98
2023-02-18T12:16:38.382Z,45.21
2023-02-18T12:17:53.639Z,42.83
2023-02-18T12:19:12.671Z,43.44
2023-02-18T12:20:55.810Z,43.55
2023-02-18T12:22:05.855Z,46.98
2023-02-18T12:23:18.009Z,46.19
2023-02-18T12:24:34.788Z,46.11
2023-02-18T12:25:48.109Z,45.45
2023-02-18T12:27:00.356Z,44.03
2023-02-18T12:28:36.464Z,46.58
2023-02-18T12:30:02.232Z,44.65
2023-02-18T12:31:22.068Z,45.17
2023-02-18T12:32:36.791Z,44.78
2023-02-18T12:33:52.797Z,47.31
2023-02-18T12:35:13.796Z,47.43
2023-02-18T12:36:28.458Z,47.34
2023-02-18T12:37:52.110Z,47.94
2023-02-18T12:39:02.670Z,48.30
2023-02-18T12:40:23.768Z,48.24
2023-02-18T12:41:40.686Z,49.60
2023-02-18T12:42:56.774Z,49.98
2023-02-18T12:44:08.923Z,49.70
2023-02-18T12:45:38.269Z,50.70
2023-02-18T12:46:57.493Z,51.76
2023-02-18T12:48:27.871Z,51.21
2023-02-18T12:49:50.021Z,50.44
2023-02-18T12:51:08.580Z,49.63
2023-02-18T12:52:27.809Z,46.99
2023-02-18T12:53:55.847Z,49.33
2023-02-18T12:55:28.756Z,48.77
2023-02-18T12:56:59.725Z,49.72
2023-02-18T12:58:15.599Z,48.66
2023-02-18T12:59:54.291Z,50.22
2023-02-18T13:01:13.721Z,50.98
2023-02-18T13:02:34.599Z,50.85
2023-02-18T13:04:11.004Z,51.17
2023-02-18T13:05:27.813Z,51.29
2023-02-18T13:06:47.919Z,52.48
2023-02-18T13:08:05.242Z,53.37
2023-02-18T13:09:23.084Z,50.99
2023-02-18T13:10:53.987Z,49.85
2023-02-18T13:12:09.037Z,46.50
2023-02-18T13:13:17.946Z,46.36
2023-02-18T13:14:24.464Z,46.19
2023-02-18T13:15:38.515Z,45.66
2023-02-18T13:16:45.993Z,46.75
2023-02-18T13:17:51.631Z,48.25
2023-02-18T13:19:04.466Z,48.98
2023-02-18T13:20:16.501Z,49.73
2023-02-18T13:21:20.938Z,50.28
2023-02-18T13:22:27.511Z,49.71
2023-02-18T13:23:35.741Z,50.06
2023-02-18T13:24:41.587Z,49.27
2023-02-18T13:25:44.816Z,49.88
2023-02-18T13:26:52.773Z,49.53
2023-02-18T13:28:10.107Z,47.71
2023-02-18T13:29:25.638Z,49.80
2023-02-18T13:30:35.435Z,50.37
2023-02-18T13:31:46.981Z,51.96
2023-02-18T13:33:03.836Z,52.15
2023-02-18T13:34:19.152Z,53.28
2023-02-18T13:35:26.102Z,53.68
2023-02-18T13:36:53.006Z,53.30
2023-02-18T13:38:14.164Z,53.95
2023-02-18T13:39:21.439Z,54.20
2023-02-18T13:40:30.239Z,52.16
2023-02-18T13:41:38.124Z,52.27
2023-02-18T13:42:41.784Z,50.87
2023-02-18T13:43:46.140Z,50.68
2023-02-18T13:45:25.252Z,51.63
2023-02-18T13:46:29.182Z,51.08
2023-02-18T13:47:40.349Z,50.77
2023-02-18T13:48:48.473Z,52.46
2023-02-18T13:49:54.161Z,51.56
2023-02-18T13:51:04.392Z,51.40
2023-02-18T13:52:09.297Z,52.16
2023-02-18T13:53:33.321Z,52.84
2023-02-18T13:54:42.303Z,52.39
2023-02-18T13:55:54.169Z,52.47
2023-02-18T13:57:03.868Z,52.03
2023-02-18T13:58:14.717Z,52.27
2023-02-18T13:59:21.938Z,50.98
2023-02-18T14:00:35.007Z,50.44
2023-02-18T14:01:42.408Z,50.75
2023-02-18T14:02:57.848Z,50.75
2023-02-18T14:04:02.321Z,50.49
2023-02-18T14:05:26.273Z,51.87
2023-02-18T14:06:34.296Z,52.03
2023-02-18T14:07:47.204Z,52.38
2023-02-18T14:09:06.208Z,52.15
2023-02-18T14:10:27.032Z,53.96
2023-02-18T14:11:43.441Z,54.24
2023-02-18T14:13:19.471Z,53.72
2023-02-18T14:14:44.856Z,52.78
2023-02-18T14:16:02.214Z,52.36
2023-02-18T14:17:45.656Z,52.20
2023-02-18T14:19:02.126Z,52.84
2023-02-18T14:20:51.569Z,54.19
2023-02-18T14:22:28.709Z,55.64
2023-02-18T14:23:43.321Z,54.98
2023-02-18T14:24:50.940Z,55.24
2023-02-18T14:25:57.770Z,56.06
2023-02-18T14:27:16.206Z,57.16
2023-02-18T14:28:46.512Z,57.56
2023-02-18T14:29:54.146Z,56.52
2023-02-18T14:30:58.301Z,57.00